Terminal Aerodrome Forecast
Issued by NWS

Home | Current Version | Previous Version | Text Only | Print | Product List | Glossary On
Versions: 1 2 3 4 5 6 7 8 9 10 11 12 13 14 15 16 17 18 19 20 21
285
FTUS41 KGYX 222335
TAFLEB
TAF
KLEB 222335Z 2300/2324 00000KT P6SM OVC015
     FM230400 00000KT 4SM BR OVC015
     FM230700 00000KT 3SM BR BKN008
     FM230900 00000KT 3SM BR BKN003
     FM231300 00000KT P6SM BKN080=

USA.gov is the U.S. government's official web portal to all federal, state and local government web resources and services.